sensor_id;sensor_type;location;lat;lon;timestamp;P1;P2;P0
55485;PMS5003;71262;-25.924;28.194;2023-08-30T00:01:05;3;3;
55485;PMS5003;71262;-25.924;28.194;2023-08-30T00:03:31;3;3;
55485;PMS5003;71262;-25.924;28.194;2023-08-30T00:05:55;3;3;
55485;PMS5003;71262;-25.924;28.194;2023-08-30T00:08:20;3;3;
55485;PMS5003;71262;-25.924;28.194;2023-08-30T00:10:45;5;4;
55485;PMS5003;71262;-25.924;28.194;2023-08-30T00:13:10;3;3;
55485;PMS5003;71262;-25.924;28.194;2023-08-30T00:15:35;3;3;
55485;PMS5003;71262;-25.924;28.194;2023-08-30T00:18:00;4;2;
55485;PMS5003;71262;-25.924;28.194;2023-08-30T00:20:25;3;3;
55485;PMS5003;71262;-25.924;28.194;2023-08-30T00:22:50;3;3;
55485;PMS5003;71262;-25.924;28.194;2023-08-30T00:25:15;4;4;
55485;PMS5003;71262;-25.924;28.194;2023-08-30T00:27:40;3;3;
55485;PMS5003;71262;-25.924;28.194;2023-08-30T00:30:06;2;2;
55485;PMS5003;71262;-25.924;28.194;2023-08-30T00:32:31;3;3;
55485;PMS5003;71262;-25.924;28.194;2023-08-30T00:34:56;3;3;
55485;PMS5003;71262;-25.924;28.194;2023-08-30T00:37:21;6;4;
55485;PMS5003;71262;-25.924;28.194;2023-08-30T00:39:46;1;1;
55485;PMS5003;71262;-25.924;28.194;2023-08-30T00:42:11;3;3;
55485;PMS5003;71262;-25.924;28.194;2023-08-30T00:44:36;4;3;
55485;PMS5003;71262;-25.924;28.194;2023-08-30T00:47:01;3;3;
55485;PMS5003;71262;-25.924;28.194;2023-08-30T00:49:26;2;2;
55485;PMS5003;71262;-25.924;28.194;2023-08-30T00:51:51;3;2;
55485;PMS5003;71262;-25.924;28.194;2023-08-30T00:54:16;3;3;
55485;PMS5003;71262;-25.924;28.194;2023-08-30T00:56:42;4;4;
55485;PMS5003;71262;-25.924;28.194;2023-08-30T00:59:07;3;3;
55485;PMS5003;71262;-25.924;28.194;2023-08-30T01:01:32;4;3;
55485;PMS5003;71262;-25.924;28.194;2023-08-30T01:03:57;4;4;
55485;PMS5003;71262;-25.924;28.194;2023-08-30T01:06:22;4;4;
55485;PMS5003;71262;-25.924;28.194;2023-08-30T01:08:47;3;3;
55485;PMS5003;71262;-25.924;28.194;2023-08-30T01:11:15;4;4;
55485;PMS5003;71262;-25.924;28.194;2023-08-30T01:13:39;2;1;
55485;PMS5003;71262;-25.924;28.194;2023-08-30T01:16:02;4;4;
55485;PMS5003;71262;-25.924;28.194;2023-08-30T01:18:29;4;3;
55485;PMS5003;71262;-25.924;28.194;2023-08-30T01:20:52;3;3;
55485;PMS5003;71262;-25.924;28.194;2023-08-30T01:23:20;2;2;
55485;PMS5003;71262;-25.924;28.194;2023-08-30T01:25:46;4;4;
55485;PMS5003;71262;-25.924;28.194;2023-08-30T01:28:08;4;3;
55485;PMS5003;71262;-25.924;28.194;2023-08-30T01:30:33;4;3;
55485;PMS5003;71262;-25.924;28.194;2023-08-30T01:32:58;3;3;
55485;PMS5003;71262;-25.924;28.194;2023-08-30T01:35:23;3;3;
55485;PMS5003;71262;-25.924;28.194;2023-08-30T01:37:48;4;3;
55485;PMS5003;71262;-25.924;28.194;2023-08-30T01:40:13;2;2;
55485;PMS5003;71262;-25.924;28.194;2023-08-30T01:42:38;4;4;
55485;PMS5003;71262;-25.924;28.194;2023-08-30T01:45:04;3;3;
55485;PMS5003;71262;-25.924;28.194;2023-08-30T01:47:29;3;3;
55485;PMS5003;71262;-25.924;28.194;2023-08-30T01:49:54;3;3;
55485;PMS5003;71262;-25.924;28.194;2023-08-30T01:52:19;3;3;
55485;PMS5003;71262;-25.924;28.194;2023-08-30T01:54:44;3;2;
55485;PMS5003;71262;-25.924;28.194;2023-08-30T01:57:09;4;4;
55485;PMS5003;71262;-25.924;28.194;2023-08-30T01:59:34;3;3;
55485;PMS5003;71262;-25.924;28.194;2023-08-30T02:01:59;3;3;
55485;PMS5003;71262;-25.924;28.194;2023-08-30T02:04:24;3;2;
55485;PMS5003;71262;-25.924;28.194;2023-08-30T02:06:52;3;3;
55485;PMS5003;71262;-25.924;28.194;2023-08-30T02:09:17;3;3;
55485;PMS5003;71262;-25.924;28.194;2023-08-30T02:11:39;3;3;
55485;PMS5003;71262;-25.924;28.194;2023-08-30T02:14:07;4;4;
55485;PMS5003;71262;-25.924;28.194;2023-08-30T02:16:30;4;3;
55485;PMS5003;71262;-25.924;28.194;2023-08-30T02:18:55;2;2;
55485;PMS5003;71262;-25.924;28.194;2023-08-30T02:21:20;4;4;
55485;PMS5003;71262;-25.924;28.194;2023-08-30T02:23:49;2;2;
55485;PMS5003;71262;-25.924;28.194;2023-08-30T02:26:10;3;3;
55485;PMS5003;71262;-25.924;28.194;2023-08-30T02:28:35;2;2;
55485;PMS5003;71262;-25.924;28.194;2023-08-30T02:31:00;3;3;
55485;PMS5003;71262;-25.924;28.194;2023-08-30T02:33:25;4;4;
55485;PMS5003;71262;-25.924;28.194;2023-08-30T02:35:50;4;3;
55485;PMS5003;71262;-25.924;28.194;2023-08-30T02:38:15;2;2;
55485;PMS5003;71262;-25.924;28.194;2023-08-30T02:40:41;2;2;
55485;PMS5003;71262;-25.924;28.194;2023-08-30T02:43:06;2;2;
55485;PMS5003;71262;-25.924;28.194;2023-08-30T02:45:31;4;4;
55485;PMS5003;71262;-25.924;28.194;2023-08-30T02:47:56;3;3;
55485;PMS5003;71262;-25.924;28.194;2023-08-30T02:50:21;3;3;
55485;PMS5003;71262;-25.924;28.194;2023-08-30T02:52:46;4;3;
55485;PMS5003;71262;-25.924;28.194;2023-08-30T02:55:11;4;4;
55485;PMS5003;71262;-25.924;28.194;2023-08-30T02:57:36;5;4;
55485;PMS5003;71262;-25.924;28.194;2023-08-30T03:00:01;3;1;
55485;PMS5003;71262;-25.924;28.194;2023-08-30T03:02:26;2;2;
55485;PMS5003;71262;-25.924;28.194;2023-08-30T03:04:51;4;4;
55485;PMS5003;71262;-25.924;28.194;2023-08-30T03:07:17;3;3;
55485;PMS5003;71262;-25.924;28.194;2023-08-30T03:09:42;3;3;
55485;PMS5003;71262;-25.924;28.194;2023-08-30T03:12:07;3;3;
55485;PMS5003;71262;-25.924;28.194;2023-08-30T03:14:32;3;3;
55485;PMS5003;71262;-25.924;28.194;2023-08-30T03:16:57;3;3;
55485;PMS5003;71262;-25.924;28.194;2023-08-30T03:19:22;3;3;
55485;PMS5003;71262;-25.924;28.194;2023-08-30T03:21:47;3;3;
55485;PMS5003;71262;-25.924;28.194;2023-08-30T03:24:12;4;4;
55485;PMS5003;71262;-25.924;28.194;2023-08-30T03:26:37;3;3;
55485;PMS5003;71262;-25.924;28.194;2023-08-30T03:29:02;4;4;
55485;PMS5003;71262;-25.924;28.194;2023-08-30T03:31:28;3;3;
55485;PMS5003;71262;-25.924;28.194;2023-08-30T03:33:53;4;4;
55485;PMS5003;71262;-25.924;28.194;2023-08-30T03:36:18;3;3;
55485;PMS5003;71262;-25.924;28.194;2023-08-30T03:38:43;43;36;
55485;PMS5003;71262;-25.924;28.194;2023-08-30T03:41:08;14;13;
55485;PMS5003;71262;-25.924;28.194;2023-08-30T03:43:34;8;7;
55485;PMS5003;71262;-25.924;28.194;2023-08-30T03:46:00;14;10;
55485;PMS5003;71262;-25.924;28.194;2023-08-30T03:48:24;9;8;
55485;PMS5003;71262;-25.924;28.194;2023-08-30T03:50:50;6;5;
55485;PMS5003;71262;-25.924;28.194;2023-08-30T03:53:15;4;4;
55485;PMS5003;71262;-25.924;28.194;2023-08-30T03:55:40;4;4;
55485;PMS5003;71262;-25.924;28.194;2023-08-30T03:58:06;4;4;
55485;PMS5003;71262;-25.924;28.194;2023-08-30T04:00:31;6;6;
55485;PMS5003;71262;-25.924;28.194;2023-08-30T04:02:56;4;4;
55485;PMS5003;71262;-25.924;28.194;2023-08-30T04:05:21;8;8;
55485;PMS5003;71262;-25.924;28.194;2023-08-30T04:07:47;33;25;
55485;PMS5003;71262;-25.924;28.194;2023-08-30T04:10:12;20;18;
55485;PMS5003;71262;-25.924;28.194;2023-08-30T04:12:38;42;38;
55485;PMS5003;71262;-25.924;28.194;2023-08-30T04:15:04;40;35;
55485;PMS5003;71262;-25.924;28.194;2023-08-30T04:17:29;13;10;
55485;PMS5003;71262;-25.924;28.194;2023-08-30T04:19:54;8;7;
55485;PMS5003;71262;-25.924;28.194;2023-08-30T04:22:20;34;26;
55485;PMS5003;71262;-25.924;28.194;2023-08-30T04:24:45;21;18;
55485;PMS5003;71262;-25.924;28.194;2023-08-30T04:27:11;20;17;
55485;PMS5003;71262;-25.924;28.194;2023-08-30T04:29:36;9;8;
55485;PMS5003;71262;-25.924;28.194;2023-08-30T04:32:01;5;5;
55485;PMS5003;71262;-25.924;28.194;2023-08-30T04:34:26;6;5;
55485;PMS5003;71262;-25.924;28.194;2023-08-30T04:36:52;5;5;
55485;PMS5003;71262;-25.924;28.194;2023-08-30T04:39:17;7;7;
55485;PMS5003;71262;-25.924;28.194;2023-08-30T04:41:42;4;4;
55485;PMS5003;71262;-25.924;28.194;2023-08-30T04:44:07;4;4;
55485;PMS5003;71262;-25.924;28.194;2023-08-30T04:46:32;4;4;
55485;PMS5003;71262;-25.924;28.194;2023-08-30T04:48:57;10;10;
55485;PMS5003;71262;-25.924;28.194;2023-08-30T04:51:23;60;50;
55485;PMS5003;71262;-25.924;28.194;2023-08-30T04:53:48;4;4;
55485;PMS5003;71262;-25.924;28.194;2023-08-30T04:56:13;10;9;
55485;PMS5003;71262;-25.924;28.194;2023-08-30T04:58:38;4;4;
55485;PMS5003;71262;-25.924;28.194;2023-08-30T05:01:03;18;16;
55485;PMS5003;71262;-25.924;28.194;2023-08-30T05:03:28;4;4;
55485;PMS5003;71262;-25.924;28.194;2023-08-30T05:05:53;4;4;
55485;PMS5003;71262;-25.924;28.194;2023-08-30T05:08:19;4;4;
55485;PMS5003;71262;-25.924;28.194;2023-08-30T05:10:44;2;2;
55485;PMS5003;71262;-25.924;28.194;2023-08-30T05:13:09;20;17;
55485;PMS5003;71262;-25.924;28.194;2023-08-30T05:15:34;6;6;
55485;PMS5003;71262;-25.924;28.194;2023-08-30T05:17:59;5;4;
55485;PMS5003;71262;-25.924;28.194;2023-08-30T05:20:24;4;4;
55485;PMS5003;71262;-25.924;28.194;2023-08-30T05:22:49;9;9;
55485;PMS5003;71262;-25.924;28.194;2023-08-30T05:25:14;6;6;
55485;PMS5003;71262;-25.924;28.194;2023-08-30T05:27:40;36;32;
55485;PMS5003;71262;-25.924;28.194;2023-08-30T05:30:05;8;8;
55485;PMS5003;71262;-25.924;28.194;2023-08-30T05:32:30;8;8;
55485;PMS5003;71262;-25.924;28.194;2023-08-30T05:34:55;9;8;
55485;PMS5003;71262;-25.924;28.194;2023-08-30T05:37:21;6;5;
55485;PMS5003;71262;-25.924;28.194;2023-08-30T05:39:46;6;5;
55485;PMS5003;71262;-25.924;28.194;2023-08-30T05:42:11;4;4;
55485;PMS5003;71262;-25.924;28.194;2023-08-30T05:44:36;15;14;
55485;PMS5003;71262;-25.924;28.194;2023-08-30T05:47:01;4;4;
55485;PMS5003;71262;-25.924;28.194;2023-08-30T05:49:26;3;3;
55485;PMS5003;71262;-25.924;28.194;2023-08-30T05:51:51;3;2;
55485;PMS5003;71262;-25.924;28.194;2023-08-30T05:54:16;25;20;
55485;PMS5003;71262;-25.924;28.194;2023-08-30T05:56:42;3;3;
55485;PMS5003;71262;-25.924;28.194;2023-08-30T05:59:07;3;3;
55485;PMS5003;71262;-25.924;28.194;2023-08-30T06:01:32;3;3;
55485;PMS5003;71262;-25.924;28.194;2023-08-30T06:03:57;3;3;
55485;PMS5003;71262;-25.924;28.194;2023-08-30T06:06:22;6;4;
55485;PMS5003;71262;-25.924;28.194;2023-08-30T06:08:48;9;8;
55485;PMS5003;71262;-25.924;28.194;2023-08-30T06:11:13;11;8;
55485;PMS5003;71262;-25.924;28.194;2023-08-30T06:13:38;8;6;
55485;PMS5003;71262;-25.924;28.194;2023-08-30T06:16:03;9;9;
55485;PMS5003;71262;-25.924;28.194;2023-08-30T06:18:29;7;7;
55485;PMS5003;71262;-25.924;28.194;2023-08-30T06:20:53;11;7;
55485;PMS5003;71262;-25.924;28.194;2023-08-30T06:23:18;11;7;
55485;PMS5003;71262;-25.924;28.194;2023-08-30T06:25:43;8;6;
55485;PMS5003;71262;-25.924;28.194;2023-08-30T06:28:09;6;4;
55485;PMS5003;71262;-25.924;28.194;2023-08-30T06:30:34;5;5;
55485;PMS5003;71262;-25.924;28.194;2023-08-30T06:32:59;4;4;
55485;PMS5003;71262;-25.924;28.194;2023-08-30T06:35:24;8;5;
55485;PMS5003;71262;-25.924;28.194;2023-08-30T06:37:49;4;4;
55485;PMS5003;71262;-25.924;28.194;2023-08-30T06:40:15;4;4;
55485;PMS5003;71262;-25.924;28.194;2023-08-30T06:42:40;4;3;
55485;PMS5003;71262;-25.924;28.194;2023-08-30T06:45:05;3;2;
55485;PMS5003;71262;-25.924;28.194;2023-08-30T06:47:30;4;4;
55485;PMS5003;71262;-25.924;28.194;2023-08-30T06:49:55;5;4;
55485;PMS5003;71262;-25.924;28.194;2023-08-30T06:52:20;3;3;
55485;PMS5003;71262;-25.924;28.194;2023-08-30T06:54:45;3;2;
55485;PMS5003;71262;-25.924;28.194;2023-08-30T06:57:10;3;3;
55485;PMS5003;71262;-25.924;28.194;2023-08-30T06:59:35;2;2;
55485;PMS5003;71262;-25.924;28.194;2023-08-30T07:02:01;3;2;
55485;PMS5003;71262;-25.924;28.194;2023-08-30T07:04:27;2;2;
55485;PMS5003;71262;-25.924;28.194;2023-08-30T07:06:53;3;3;
55485;PMS5003;71262;-25.924;28.194;2023-08-30T07:09:19;4;4;
55485;PMS5003;71262;-25.924;28.194;2023-08-30T07:11:45;4;4;
55485;PMS5003;71262;-25.924;28.194;2023-08-30T07:14:11;3;2;
55485;PMS5003;71262;-25.924;28.194;2023-08-30T07:16:36;5;4;
55485;PMS5003;71262;-25.924;28.194;2023-08-30T07:19:02;4;3;
55485;PMS5003;71262;-25.924;28.194;2023-08-30T07:21:28;5;4;
55485;PMS5003;71262;-25.924;28.194;2023-08-30T07:23:54;3;3;
55485;PMS5003;71262;-25.924;28.194;2023-08-30T07:26:20;3;2;
55485;PMS5003;71262;-25.924;28.194;2023-08-30T07:28:46;2;2;
55485;PMS5003;71262;-25.924;28.194;2023-08-30T07:31:11;3;2;
55485;PMS5003;71262;-25.924;28.194;2023-08-30T07:33:37;3;2;
55485;PMS5003;71262;-25.924;28.194;2023-08-30T07:36:03;2;2;
55485;PMS5003;71262;-25.924;28.194;2023-08-30T07:38:29;0;0;
55485;PMS5003;71262;-25.924;28.194;2023-08-30T07:40:55;2;2;
55485;PMS5003;71262;-25.924;28.194;2023-08-30T07:43:21;3;2;
55485;PMS5003;71262;-25.924;28.194;2023-08-30T07:45:46;2;2;
55485;PMS5003;71262;-25.924;28.194;2023-08-30T07:48:12;1;1;
55485;PMS5003;71262;-25.924;28.194;2023-08-30T07:50:38;2;2;
55485;PMS5003;71262;-25.924;28.194;2023-08-30T07:53:04;3;3;
55485;PMS5003;71262;-25.924;28.194;2023-08-30T07:55:29;20;20;
55485;PMS5003;71262;-25.924;28.194;2023-08-30T07:57:54;28;27;
55485;PMS5003;71262;-25.924;28.194;2023-08-30T08:00:19;25;25;
55485;PMS5003;71262;-25.924;28.194;2023-08-30T08:02:44;31;31;
55485;PMS5003;71262;-25.924;28.194;2023-08-30T08:05:09;35;35;
55485;PMS5003;71262;-25.924;28.194;2023-08-30T08:07:38;45;45;
55485;PMS5003;71262;-25.924;28.194;2023-08-30T08:10:00;59;59;
55485;PMS5003;71262;-25.924;28.194;2023-08-30T08:12:26;57;56;
55485;PMS5003;71262;-25.924;28.194;2023-08-30T08:14:51;58;57;
55485;PMS5003;71262;-25.924;28.194;2023-08-30T08:17:15;47;47;
55485;PMS5003;71262;-25.924;28.194;2023-08-30T08:19:41;40;40;
55485;PMS5003;71262;-25.924;28.194;2023-08-30T08:22:07;30;30;
55485;PMS5003;71262;-25.924;28.194;2023-08-30T08:24:31;31;31;
55485;PMS5003;71262;-25.924;28.194;2023-08-30T08:26:56;25;25;
55485;PMS5003;71262;-25.924;28.194;2023-08-30T08:29:21;24;24;
55485;PMS5003;71262;-25.924;28.194;2023-08-30T08:31:46;24;24;
55485;PMS5003;71262;-25.924;28.194;2023-08-30T08:34:12;25;25;
55485;PMS5003;71262;-25.924;28.194;2023-08-30T08:36:37;27;27;
55485;PMS5003;71262;-25.924;28.194;2023-08-30T08:39:01;22;22;
55485;PMS5003;71262;-25.924;28.194;2023-08-30T08:41:27;22;22;
55485;PMS5003;71262;-25.924;28.194;2023-08-30T08:43:52;22;22;
55485;PMS5003;71262;-25.924;28.194;2023-08-30T08:46:17;25;25;
55485;PMS5003;71262;-25.924;28.194;2023-08-30T08:48:42;25;25;
55485;PMS5003;71262;-25.924;28.194;2023-08-30T08:51:07;25;25;
55485;PMS5003;71262;-25.924;28.194;2023-08-30T08:53:32;26;26;
55485;PMS5003;71262;-25.924;28.194;2023-08-30T08:55:57;28;28;
55485;PMS5003;71262;-25.924;28.194;2023-08-30T08:58:23;27;27;
55485;PMS5003;71262;-25.924;28.194;2023-08-30T09:00:47;27;27;
55485;PMS5003;71262;-25.924;28.194;2023-08-30T09:03:12;30;30;
55485;PMS5003;71262;-25.924;28.194;2023-08-30T09:05:37;28;28;
55485;PMS5003;71262;-25.924;28.194;2023-08-30T09:08:02;29;29;
55485;PMS5003;71262;-25.924;28.194;2023-08-30T09:10:28;29;29;
55485;PMS5003;71262;-25.924;28.194;2023-08-30T09:12:52;29;29;
55485;PMS5003;71262;-25.924;28.194;2023-08-30T09:15:17;25;25;
55485;PMS5003;71262;-25.924;28.194;2023-08-30T09:17:43;30;29;
55485;PMS5003;71262;-25.924;28.194;2023-08-30T09:20:08;36;35;
55485;PMS5003;71262;-25.924;28.194;2023-08-30T09:22:36;35;35;
55485;PMS5003;71262;-25.924;28.194;2023-08-30T09:24:58;62;62;
55485;PMS5003;71262;-25.924;28.194;2023-08-30T09:29:49;89;89;
55485;PMS5003;71262;-25.924;28.194;2023-08-30T09:32:20;82;82;
55485;PMS5003;71262;-25.924;28.194;2023-08-30T09:37:05;136;136;
55485;PMS5003;71262;-25.924;28.194;2023-08-30T09:39:31;26;26;
55485;PMS5003;71262;-25.924;28.194;2023-08-30T09:41:56;92;92;
55485;PMS5003;71262;-25.924;28.194;2023-08-30T09:44:21;9;9;
55485;PMS5003;71262;-25.924;28.194;2023-08-30T09:46:47;4;4;
55485;PMS5003;71262;-25.924;28.194;2023-08-30T09:49:11;2;2;
55485;PMS5003;71262;-25.924;28.194;2023-08-30T09:51:38;0;0;
55485;PMS5003;71262;-25.924;28.194;2023-08-30T09:54:03;0;0;
55485;PMS5003;71262;-25.924;28.194;2023-08-30T09:56:27;1;1;
55485;PMS5003;71262;-25.924;28.194;2023-08-30T09:58:53;1;1;
55485;PMS5003;71262;-25.924;28.194;2023-08-30T10:01:20;0;0;
55485;PMS5003;71262;-25.924;28.194;2023-08-30T10:03:45;2;2;
55485;PMS5003;71262;-25.924;28.194;2023-08-30T10:06:11;1;1;
55485;PMS5003;71262;-25.924;28.194;2023-08-30T10:08:37;1;1;
55485;PMS5003;71262;-25.924;28.194;2023-08-30T10:11:03;1;1;
55485;PMS5003;71262;-25.924;28.194;2023-08-30T10:13:28;1;1;
55485;PMS5003;71262;-25.924;28.194;2023-08-30T10:15:56;2;2;
55485;PMS5003;71262;-25.924;28.194;2023-08-30T10:18:19;3;3;
55485;PMS5003;71262;-25.924;28.194;2023-08-30T10:20:43;2;2;
55485;PMS5003;71262;-25.924;28.194;2023-08-30T10:23:09;3;3;
55485;PMS5003;71262;-25.924;28.194;2023-08-30T10:25:35;3;3;
55485;PMS5003;71262;-25.924;28.194;2023-08-30T10:28:00;4;4;
55485;PMS5003;71262;-25.924;28.194;2023-08-30T10:30:26;3;3;
55485;PMS5003;71262;-25.924;28.194;2023-08-30T10:32:52;1;1;
55485;PMS5003;71262;-25.924;28.194;2023-08-30T10:35:18;1;1;
55485;PMS5003;71262;-25.924;28.194;2023-08-30T10:37:42;4;1;
55485;PMS5003;71262;-25.924;28.194;2023-08-30T10:40:08;1;1;
55485;PMS5003;71262;-25.924;28.194;2023-08-30T10:42:32;2;2;
55485;PMS5003;71262;-25.924;28.194;2023-08-30T10:44:58;2;2;
55485;PMS5003;71262;-25.924;28.194;2023-08-30T10:47:23;3;2;
55485;PMS5003;71262;-25.924;28.194;2023-08-30T10:49:48;2;2;
55485;PMS5003;71262;-25.924;28.194;2023-08-30T10:52:13;4;4;
55485;PMS5003;71262;-25.924;28.194;2023-08-30T10:54:38;3;3;
55485;PMS5003;71262;-25.924;28.194;2023-08-30T10:57:03;4;4;
55485;PMS5003;71262;-25.924;28.194;2023-08-30T10:59:28;2;2;
55485;PMS5003;71262;-25.924;28.194;2023-08-30T11:01:53;3;3;
55485;PMS5003;71262;-25.924;28.194;2023-08-30T11:04:19;3;3;
55485;PMS5003;71262;-25.924;28.194;2023-08-30T11:06:43;5;4;
55485;PMS5003;71262;-25.924;28.194;2023-08-30T11:09:08;4;4;
55485;PMS5003;71262;-25.924;28.194;2023-08-30T11:11:34;4;4;
55485;PMS5003;71262;-25.924;28.194;2023-08-30T11:16:23;4;4;
55485;PMS5003;71262;-25.924;28.194;2023-08-30T11:18:49;6;5;
55485;PMS5003;71262;-25.924;28.194;2023-08-30T11:21:13;4;4;
55485;PMS5003;71262;-25.924;28.194;2023-08-30T11:23:38;6;4;
55485;PMS5003;71262;-25.924;28.194;2023-08-30T11:26:03;5;4;
55485;PMS5003;71262;-25.924;28.194;2023-08-30T11:28:28;5;5;
55485;PMS5003;71262;-25.924;28.194;2023-08-30T11:30:53;3;3;
55485;PMS5003;71262;-25.924;28.194;2023-08-30T11:33:18;4;4;
55485;PMS5003;71262;-25.924;28.194;2023-08-30T11:35:44;3;3;
55485;PMS5003;71262;-25.924;28.194;2023-08-30T11:38:08;3;3;
55485;PMS5003;71262;-25.924;28.194;2023-08-30T11:40:33;2;2;
55485;PMS5003;71262;-25.924;28.194;2023-08-30T11:42:58;3;3;
55485;PMS5003;71262;-25.924;28.194;2023-08-30T11:45:23;1;1;
55485;PMS5003;71262;-25.924;28.194;2023-08-30T11:47:48;1;1;
55485;PMS5003;71262;-25.924;28.194;2023-08-30T11:50:14;1;1;
55485;PMS5003;71262;-25.924;28.194;2023-08-30T11:52:39;1;1;
55485;PMS5003;71262;-25.924;28.194;2023-08-30T11:55:04;1;1;
55485;PMS5003;71262;-25.924;28.194;2023-08-30T11:57:29;3;2;
55485;PMS5003;71262;-25.924;28.194;2023-08-30T11:59:54;2;2;
55485;PMS5003;71262;-25.924;28.194;2023-08-30T12:02:19;0;0;
55485;PMS5003;71262;-25.924;28.194;2023-08-30T12:04:44;3;3;
55485;PMS5003;71262;-25.924;28.194;2023-08-30T12:07:09;1;1;
55485;PMS5003;71262;-25.924;28.194;2023-08-30T12:09:34;0;0;
55485;PMS5003;71262;-25.924;28.194;2023-08-30T12:16:49;0;0;
55485;PMS5003;71262;-25.924;28.194;2023-08-30T12:19:14;0;0;
55485;PMS5003;71262;-25.924;28.194;2023-08-30T12:21:40;0;0;
55485;PMS5003;71262;-25.924;28.194;2023-08-30T12:24:04;0;0;
55485;PMS5003;71262;-25.924;28.194;2023-08-30T12:26:31;1;1;
55485;PMS5003;71262;-25.924;28.194;2023-08-30T12:28:54;2;2;
55485;PMS5003;71262;-25.924;28.194;2023-08-30T12:31:19;2;2;
55485;PMS5003;71262;-25.924;28.194;2023-08-30T12:33:44;2;2;
55485;PMS5003;71262;-25.924;28.194;2023-08-30T12:36:09;1;1;
55485;PMS5003;71262;-25.924;28.194;2023-08-30T12:38:34;1;1;
55485;PMS5003;71262;-25.924;28.194;2023-08-30T12:40:59;1;1;
55485;PMS5003;71262;-25.924;28.194;2023-08-30T12:43:24;2;1;
55485;PMS5003;71262;-25.924;28.194;2023-08-30T12:45:49;0;0;
55485;PMS5003;71262;-25.924;28.194;2023-08-30T12:48:15;1;1;
55485;PMS5003;71262;-25.924;28.194;2023-08-30T12:50:39;2;2;
55485;PMS5003;71262;-25.924;28.194;2023-08-30T12:53:05;2;1;
55485;PMS5003;71262;-25.924;28.194;2023-08-30T12:55:29;2;2;
55485;PMS5003;71262;-25.924;28.194;2023-08-30T12:57:54;2;1;
55485;PMS5003;71262;-25.924;28.194;2023-08-30T13:00:20;2;2;
55485;PMS5003;71262;-25.924;28.194;2023-08-30T13:02:44;1;1;
55485;PMS5003;71262;-25.924;28.194;2023-08-30T13:05:09;2;1;
55485;PMS5003;71262;-25.924;28.194;2023-08-30T13:07:34;1;1;
55485;PMS5003;71262;-25.924;28.194;2023-08-30T13:10:00;0;0;
55485;PMS5003;71262;-25.924;28.194;2023-08-30T13:12:25;0;0;
55485;PMS5003;71262;-25.924;28.194;2023-08-30T13:14:50;0;0;
55485;PMS5003;71262;-25.924;28.194;2023-08-30T13:17:15;1;1;
55485;PMS5003;71262;-25.924;28.194;2023-08-30T13:19:40;0;0;
55485;PMS5003;71262;-25.924;28.194;2023-08-30T13:22:05;1;1;
55485;PMS5003;71262;-25.924;28.194;2023-08-30T13:24:30;1;1;
55485;PMS5003;71262;-25.924;28.194;2023-08-30T13:26:55;1;1;
55485;PMS5003;71262;-25.924;28.194;2023-08-30T13:29:20;1;1;
55485;PMS5003;71262;-25.924;28.194;2023-08-30T13:31:45;0;0;
55485;PMS5003;71262;-25.924;28.194;2023-08-30T13:34:10;2;1;
55485;PMS5003;71262;-25.924;28.194;2023-08-30T13:36:35;1;1;
55485;PMS5003;71262;-25.924;28.194;2023-08-30T13:39:00;2;1;
55485;PMS5003;71262;-25.924;28.194;2023-08-30T13:41:25;1;1;
55485;PMS5003;71262;-25.924;28.194;2023-08-30T13:43:50;1;1;
55485;PMS5003;71262;-25.924;28.194;2023-08-30T13:46:15;1;1;
55485;PMS5003;71262;-25.924;28.194;2023-08-30T13:48:40;1;1;
55485;PMS5003;71262;-25.924;28.194;2023-08-30T13:51:05;0;0;
55485;PMS5003;71262;-25.924;28.194;2023-08-30T13:53:30;0;0;
55485;PMS5003;71262;-25.924;28.194;2023-08-30T13:55:55;1;1;
55485;PMS5003;71262;-25.924;28.194;2023-08-30T13:58:20;2;2;
55485;PMS5003;71262;-25.924;28.194;2023-08-30T14:00:45;2;2;
55485;PMS5003;71262;-25.924;28.194;2023-08-30T14:03:10;2;1;
55485;PMS5003;71262;-25.924;28.194;2023-08-30T14:05:35;2;2;
55485;PMS5003;71262;-25.924;28.194;2023-08-30T14:08:00;2;2;
55485;PMS5003;71262;-25.924;28.194;2023-08-30T14:10:26;2;2;
55485;PMS5003;71262;-25.924;28.194;2023-08-30T14:12:51;2;2;
55485;PMS5003;71262;-25.924;28.194;2023-08-30T14:15:16;2;2;
55485;PMS5003;71262;-25.924;28.194;2023-08-30T14:17:41;3;2;
55485;PMS5003;71262;-25.924;28.194;2023-08-30T14:20:06;1;1;
55485;PMS5003;71262;-25.924;28.194;2023-08-30T14:22:31;2;1;
55485;PMS5003;71262;-25.924;28.194;2023-08-30T14:24:56;0;0;
55485;PMS5003;71262;-25.924;28.194;2023-08-30T14:27:21;2;2;
55485;PMS5003;71262;-25.924;28.194;2023-08-30T14:29:46;2;2;
55485;PMS5003;71262;-25.924;28.194;2023-08-30T14:32:11;1;1;
55485;PMS5003;71262;-25.924;28.194;2023-08-30T14:34:36;3;2;
55485;PMS5003;71262;-25.924;28.194;2023-08-30T14:37:01;2;2;
55485;PMS5003;71262;-25.924;28.194;2023-08-30T14:39:26;2;0;
55485;PMS5003;71262;-25.924;28.194;2023-08-30T14:41:51;1;1;
55485;PMS5003;71262;-25.924;28.194;2023-08-30T14:44:16;0;0;
55485;PMS5003;71262;-25.924;28.194;2023-08-30T14:46:41;2;2;
55485;PMS5003;71262;-25.924;28.194;2023-08-30T14:49:07;3;3;
55485;PMS5003;71262;-25.924;28.194;2023-08-30T14:51:31;2;2;
55485;PMS5003;71262;-25.924;28.194;2023-08-30T14:53:56;3;2;
55485;PMS5003;71262;-25.924;28.194;2023-08-30T14:56:21;2;2;
55485;PMS5003;71262;-25.924;28.194;2023-08-30T14:58:46;3;3;
55485;PMS5003;71262;-25.924;28.194;2023-08-30T15:01:11;2;2;
55485;PMS5003;71262;-25.924;28.194;2023-08-30T15:03:37;2;2;
55485;PMS5003;71262;-25.924;28.194;2023-08-30T15:06:02;2;2;
55485;PMS5003;71262;-25.924;28.194;2023-08-30T15:08:27;3;3;
55485;PMS5003;71262;-25.924;28.194;2023-08-30T15:10:52;3;2;
55485;PMS5003;71262;-25.924;28.194;2023-08-30T15:13:17;3;2;
55485;PMS5003;71262;-25.924;28.194;2023-08-30T15:15:42;2;2;
55485;PMS5003;71262;-25.924;28.194;2023-08-30T15:18:07;3;2;
55485;PMS5003;71262;-25.924;28.194;2023-08-30T15:20:32;3;3;
55485;PMS5003;71262;-25.924;28.194;2023-08-30T15:22:57;2;2;
55485;PMS5003;71262;-25.924;28.194;2023-08-30T15:25:22;2;2;
55485;PMS5003;71262;-25.924;28.194;2023-08-30T15:27:47;3;3;
55485;PMS5003;71262;-25.924;28.194;2023-08-30T15:30:12;2;2;
55485;PMS5003;71262;-25.924;28.194;2023-08-30T15:32:37;2;2;
55485;PMS5003;71262;-25.924;28.194;2023-08-30T15:35:02;3;2;
55485;PMS5003;71262;-25.924;28.194;2023-08-30T15:37:27;2;2;
55485;PMS5003;71262;-25.924;28.194;2023-08-30T15:39:58;2;2;
55485;PMS5003;71262;-25.924;28.194;2023-08-30T15:42:17;3;3;
55485;PMS5003;71262;-25.924;28.194;2023-08-30T15:44:42;4;4;
55485;PMS5003;71262;-25.924;28.194;2023-08-30T15:47:08;2;2;
55485;PMS5003;71262;-25.924;28.194;2023-08-30T15:49:32;3;3;
55485;PMS5003;71262;-25.924;28.194;2023-08-30T15:51:57;2;2;
55485;PMS5003;71262;-25.924;28.194;2023-08-30T15:54:22;3;3;
55485;PMS5003;71262;-25.924;28.194;2023-08-30T15:56:48;2;2;
55485;PMS5003;71262;-25.924;28.194;2023-08-30T15:59:13;2;2;
55485;PMS5003;71262;-25.924;28.194;2023-08-30T16:01:38;2;2;
55485;PMS5003;71262;-25.924;28.194;2023-08-30T16:04:03;3;3;
55485;PMS5003;71262;-25.924;28.194;2023-08-30T16:06:28;3;3;
55485;PMS5003;71262;-25.924;28.194;2023-08-30T16:08:53;2;2;